sensor_id;sensor_type;location;lat;lon;timestamp;P1;durP1;ratioP1;P2;durP2;ratioP2
49241;SDS011;35079;52.704;13.814;2023-11-21T00:02:13;82.95;;;26.08;;
49241;SDS011;35079;52.704;13.814;2023-11-21T00:04:39;72.47;;;24.25;;
49241;SDS011;35079;52.704;13.814;2023-11-21T00:07:04;77.85;;;25.27;;
49241;SDS011;35079;52.704;13.814;2023-11-21T00:09:31;70.82;;;23.42;;
49241;SDS011;35079;52.704;13.814;2023-11-21T00:11:57;62.63;;;22.35;;
49241;SDS011;35079;52.704;13.814;2023-11-21T00:14:24;67.00;;;22.42;;
49241;SDS011;35079;52.704;13.814;2023-11-21T00:16:50;55.60;;;22.10;;
49241;SDS011;35079;52.704;13.814;2023-11-21T00:19:15;62.72;;;23.38;;
49241;SDS011;35079;52.704;13.814;2023-11-21T00:21:41;47.97;;;21.05;;
49241;SDS011;35079;52.704;13.814;2023-11-21T00:24:09;51.47;;;21.88;;
49241;SDS011;35079;52.704;13.814;2023-11-21T00:26:35;48.70;;;20.50;;
49241;SDS011;35079;52.704;13.814;2023-11-21T00:29:02;50.15;;;21.85;;
49241;SDS011;35079;52.704;13.814;2023-11-21T00:31:28;42.35;;;20.23;;
49241;SDS011;35079;52.704;13.814;2023-11-21T00:33:55;46.03;;;18.80;;
49241;SDS011;35079;52.704;13.814;2023-11-21T00:36:21;38.15;;;18.00;;
49241;SDS011;35079;52.704;13.814;2023-11-21T00:38:47;38.83;;;17.80;;
49241;SDS011;35079;52.704;13.814;2023-11-21T00:41:13;40.53;;;17.95;;
49241;SDS011;35079;52.704;13.814;2023-11-21T00:43:39;40.03;;;18.13;;
49241;SDS011;35079;52.704;13.814;2023-11-21T00:46:05;43.50;;;19.60;;
49241;SDS011;35079;52.704;13.814;2023-11-21T00:48:33;46.72;;;19.23;;
49241;SDS011;35079;52.704;13.814;2023-11-21T00:50:59;54.42;;;21.38;;
49241;SDS011;35079;52.704;13.814;2023-11-21T00:53:25;61.97;;;21.95;;
49241;SDS011;35079;52.704;13.814;2023-11-21T00:55:50;64.88;;;24.60;;
49241;SDS011;35079;52.704;13.814;2023-11-21T00:58:22;75.65;;;25.95;;
49241;SDS011;35079;52.704;13.814;2023-11-21T01:00:48;76.78;;;28.65;;
49241;SDS011;35079;52.704;13.814;2023-11-21T01:03:17;83.90;;;28.77;;
49241;SDS011;35079;52.704;13.814;2023-11-21T01:05:42;91.72;;;29.42;;
49241;SDS011;35079;52.704;13.814;2023-11-21T01:08:08;74.72;;;27.88;;
49241;SDS011;35079;52.704;13.814;2023-11-21T01:10:34;81.20;;;28.10;;
49241;SDS011;35079;52.704;13.814;2023-11-21T01:13:00;74.30;;;27.38;;
49241;SDS011;35079;52.704;13.814;2023-11-21T01:15:25;73.55;;;27.50;;
49241;SDS011;35079;52.704;13.814;2023-11-21T01:17:51;85.80;;;28.35;;
49241;SDS011;35079;52.704;13.814;2023-11-21T01:20:17;76.70;;;27.88;;
49241;SDS011;35079;52.704;13.814;2023-11-21T01:22:43;69.60;;;26.27;;
49241;SDS011;35079;52.704;13.814;2023-11-21T01:25:09;73.03;;;25.23;;
49241;SDS011;35079;52.704;13.814;2023-11-21T01:27:35;60.05;;;24.98;;
49241;SDS011;35079;52.704;13.814;2023-11-21T01:30:04;64.30;;;22.30;;
49241;SDS011;35079;52.704;13.814;2023-11-21T01:32:32;52.85;;;20.92;;
49241;SDS011;35079;52.704;13.814;2023-11-21T01:34:59;48.67;;;19.35;;
49241;SDS011;35079;52.704;13.814;2023-11-21T01:37:25;50.28;;;18.40;;
49241;SDS011;35079;52.704;13.814;2023-11-21T01:39:53;38.58;;;16.02;;
49241;SDS011;35079;52.704;13.814;2023-11-21T01:42:21;35.45;;;14.27;;
49241;SDS011;35079;52.704;13.814;2023-11-21T01:44:47;32.10;;;13.70;;
49241;SDS011;35079;52.704;13.814;2023-11-21T01:47:14;34.75;;;13.73;;
49241;SDS011;35079;52.704;13.814;2023-11-21T01:49:40;30.73;;;13.57;;
49241;SDS011;35079;52.704;13.814;2023-11-21T01:52:10;29.60;;;13.30;;
49241;SDS011;35079;52.704;13.814;2023-11-21T01:54:37;30.20;;;12.88;;
49241;SDS011;35079;52.704;13.814;2023-11-21T01:57:03;24.48;;;11.88;;
49241;SDS011;35079;52.704;13.814;2023-11-21T01:59:35;23.40;;;11.18;;
49241;SDS011;35079;52.704;13.814;2023-11-21T02:02:05;24.05;;;11.50;;
49241;SDS011;35079;52.704;13.814;2023-11-21T02:04:34;24.33;;;11.55;;
49241;SDS011;35079;52.704;13.814;2023-11-21T02:07:01;22.73;;;10.40;;
49241;SDS011;35079;52.704;13.814;2023-11-21T02:09:30;21.92;;;10.50;;
49241;SDS011;35079;52.704;13.814;2023-11-21T02:11:56;16.88;;;9.75;;
49241;SDS011;35079;52.704;13.814;2023-11-21T02:14:23;15.57;;;9.05;;
49241;SDS011;35079;52.704;13.814;2023-11-21T02:16:53;15.43;;;8.70;;
49241;SDS011;35079;52.704;13.814;2023-11-21T02:19:22;18.13;;;9.55;;
49241;SDS011;35079;52.704;13.814;2023-11-21T02:21:50;18.85;;;9.55;;
49241;SDS011;35079;52.704;13.814;2023-11-21T02:24:20;16.00;;;9.77;;
49241;SDS011;35079;52.704;13.814;2023-11-21T02:26:47;18.13;;;9.63;;
49241;SDS011;35079;52.704;13.814;2023-11-21T02:29:13;14.40;;;9.68;;
49241;SDS011;35079;52.704;13.814;2023-11-21T02:31:41;17.88;;;9.68;;
49241;SDS011;35079;52.704;13.814;2023-11-21T02:34:13;16.90;;;10.20;;
49241;SDS011;35079;52.704;13.814;2023-11-21T02:36:39;15.73;;;9.15;;
49241;SDS011;35079;52.704;13.814;2023-11-21T02:39:05;14.75;;;8.73;;
49241;SDS011;35079;52.704;13.814;2023-11-21T02:41:32;15.15;;;9.05;;
49241;SDS011;35079;52.704;13.814;2023-11-21T02:43:59;14.63;;;9.30;;
49241;SDS011;35079;52.704;13.814;2023-11-21T02:46:25;11.73;;;8.65;;
49241;SDS011;35079;52.704;13.814;2023-11-21T02:48:51;16.00;;;9.65;;
49241;SDS011;35079;52.704;13.814;2023-11-21T02:51:19;13.63;;;8.82;;
49241;SDS011;35079;52.704;13.814;2023-11-21T02:53:44;15.85;;;9.23;;
49241;SDS011;35079;52.704;13.814;2023-11-21T02:56:11;14.48;;;8.38;;
49241;SDS011;35079;52.704;13.814;2023-11-21T02:58:37;14.00;;;8.70;;
49241;SDS011;35079;52.704;13.814;2023-11-21T03:01:03;14.35;;;8.60;;
49241;SDS011;35079;52.704;13.814;2023-11-21T03:03:30;12.85;;;8.52;;
49241;SDS011;35079;52.704;13.814;2023-11-21T03:05:56;14.88;;;8.07;;
49241;SDS011;35079;52.704;13.814;2023-11-21T03:08:21;11.50;;;7.07;;
49241;SDS011;35079;52.704;13.814;2023-11-21T03:10:47;14.43;;;6.43;;
49241;SDS011;35079;52.704;13.814;2023-11-21T03:13:12;9.10;;;5.53;;
49241;SDS011;35079;52.704;13.814;2023-11-21T03:15:38;8.40;;;4.90;;
49241;SDS011;35079;52.704;13.814;2023-11-21T03:18:04;7.50;;;5.28;;
49241;SDS011;35079;52.704;13.814;2023-11-21T03:20:30;9.27;;;6.28;;
49241;SDS011;35079;52.704;13.814;2023-11-21T03:22:55;7.10;;;4.95;;
49241;SDS011;35079;52.704;13.814;2023-11-21T03:25:21;9.35;;;5.60;;
49241;SDS011;35079;52.704;13.814;2023-11-21T03:27:48;12.32;;;5.82;;
49241;SDS011;35079;52.704;13.814;2023-11-21T03:30:14;9.60;;;5.80;;
49241;SDS011;35079;52.704;13.814;2023-11-21T03:32:40;8.25;;;5.85;;
49241;SDS011;35079;52.704;13.814;2023-11-21T03:35:06;8.90;;;6.07;;
49241;SDS011;35079;52.704;13.814;2023-11-21T03:37:32;10.15;;;5.72;;
49241;SDS011;35079;52.704;13.814;2023-11-21T03:39:57;9.73;;;6.20;;
49241;SDS011;35079;52.704;13.814;2023-11-21T03:42:23;8.73;;;6.20;;
49241;SDS011;35079;52.704;13.814;2023-11-21T03:44:51;12.02;;;5.97;;
49241;SDS011;35079;52.704;13.814;2023-11-21T03:47:17;9.07;;;5.95;;
49241;SDS011;35079;52.704;13.814;2023-11-21T03:49:44;7.28;;;5.38;;
49241;SDS011;35079;52.704;13.814;2023-11-21T03:52:10;7.95;;;5.07;;
49241;SDS011;35079;52.704;13.814;2023-11-21T03:54:36;8.45;;;6.10;;
49241;SDS011;35079;52.704;13.814;2023-11-21T03:57:02;10.63;;;5.72;;
49241;SDS011;35079;52.704;13.814;2023-11-21T03:59:28;7.75;;;5.95;;
49241;SDS011;35079;52.704;13.814;2023-11-21T04:01:55;11.13;;;6.13;;
49241;SDS011;35079;52.704;13.814;2023-11-21T04:04:22;10.00;;;6.07;;
49241;SDS011;35079;52.704;13.814;2023-11-21T04:06:47;10.63;;;6.68;;
49241;SDS011;35079;52.704;13.814;2023-11-21T04:09:13;8.52;;;6.10;;
49241;SDS011;35079;52.704;13.814;2023-11-21T04:11:38;9.32;;;6.07;;
49241;SDS011;35079;52.704;13.814;2023-11-21T04:14:04;9.75;;;6.82;;
49241;SDS011;35079;52.704;13.814;2023-11-21T04:16:30;8.07;;;6.28;;
49241;SDS011;35079;52.704;13.814;2023-11-21T04:18:55;9.30;;;6.38;;
49241;SDS011;35079;52.704;13.814;2023-11-21T04:21:22;9.00;;;6.32;;
49241;SDS011;35079;52.704;13.814;2023-11-21T04:23:49;11.13;;;5.78;;
49241;SDS011;35079;52.704;13.814;2023-11-21T04:26:14;11.00;;;6.75;;
49241;SDS011;35079;52.704;13.814;2023-11-21T04:28:40;14.80;;;6.75;;
49241;SDS011;35079;52.704;13.814;2023-11-21T04:31:05;9.23;;;6.25;;
49241;SDS011;35079;52.704;13.814;2023-11-21T04:33:32;10.10;;;6.55;;
49241;SDS011;35079;52.704;13.814;2023-11-21T04:35:57;7.47;;;6.50;;
49241;SDS011;35079;52.704;13.814;2023-11-21T04:38:23;10.05;;;6.57;;
49241;SDS011;35079;52.704;13.814;2023-11-21T04:40:49;11.25;;;7.00;;
49241;SDS011;35079;52.704;13.814;2023-11-21T04:43:14;10.38;;;6.10;;
49241;SDS011;35079;52.704;13.814;2023-11-21T04:45:40;8.85;;;6.22;;
49241;SDS011;35079;52.704;13.814;2023-11-21T04:48:06;11.73;;;7.65;;
49241;SDS011;35079;52.704;13.814;2023-11-21T04:50:33;8.63;;;6.15;;
49241;SDS011;35079;52.704;13.814;2023-11-21T04:52:59;10.85;;;6.40;;
49241;SDS011;35079;52.704;13.814;2023-11-21T04:55:24;12.60;;;7.57;;
49241;SDS011;35079;52.704;13.814;2023-11-21T04:57:53;10.63;;;7.40;;
49241;SDS011;35079;52.704;13.814;2023-11-21T05:00:18;10.68;;;7.32;;
49241;SDS011;35079;52.704;13.814;2023-11-21T05:02:46;10.00;;;7.07;;
49241;SDS011;35079;52.704;13.814;2023-11-21T05:05:11;12.32;;;8.00;;
49241;SDS011;35079;52.704;13.814;2023-11-21T05:07:37;11.68;;;7.28;;
49241;SDS011;35079;52.704;13.814;2023-11-21T05:10:05;10.95;;;7.53;;
49241;SDS011;35079;52.704;13.814;2023-11-21T05:12:37;10.38;;;7.68;;
49241;SDS011;35079;52.704;13.814;2023-11-21T05:15:06;11.73;;;7.43;;
49241;SDS011;35079;52.704;13.814;2023-11-21T05:17:36;9.93;;;6.82;;
49241;SDS011;35079;52.704;13.814;2023-11-21T05:20:03;8.60;;;6.65;;
49241;SDS011;35079;52.704;13.814;2023-11-21T05:22:33;10.65;;;6.70;;
49241;SDS011;35079;52.704;13.814;2023-11-21T05:24:59;7.32;;;5.60;;
49241;SDS011;35079;52.704;13.814;2023-11-21T05:27:25;8.68;;;6.13;;
49241;SDS011;35079;52.704;13.814;2023-11-21T05:29:50;7.60;;;5.38;;
49241;SDS011;35079;52.704;13.814;2023-11-21T05:32:16;8.48;;;5.28;;
49241;SDS011;35079;52.704;13.814;2023-11-21T05:34:42;9.75;;;5.78;;
49241;SDS011;35079;52.704;13.814;2023-11-21T05:37:08;9.65;;;6.22;;
49241;SDS011;35079;52.704;13.814;2023-11-21T05:39:33;12.30;;;6.60;;
49241;SDS011;35079;52.704;13.814;2023-11-21T05:41:59;13.27;;;6.72;;
49241;SDS011;35079;52.704;13.814;2023-11-21T05:44:25;16.92;;;7.93;;
49241;SDS011;35079;52.704;13.814;2023-11-21T05:46:50;16.95;;;8.02;;
49241;SDS011;35079;52.704;13.814;2023-11-21T05:49:16;16.38;;;7.38;;
49241;SDS011;35079;52.704;13.814;2023-11-21T05:51:41;15.38;;;7.78;;
49241;SDS011;35079;52.704;13.814;2023-11-21T05:54:07;20.13;;;7.07;;
49241;SDS011;35079;52.704;13.814;2023-11-21T05:56:33;15.13;;;7.57;;
49241;SDS011;35079;52.704;13.814;2023-11-21T05:58:59;12.30;;;6.45;;
49241;SDS011;35079;52.704;13.814;2023-11-21T06:01:24;12.90;;;6.53;;
49241;SDS011;35079;52.704;13.814;2023-11-21T06:03:53;10.40;;;6.28;;
49241;SDS011;35079;52.704;13.814;2023-11-21T06:06:19;12.45;;;6.13;;
49241;SDS011;35079;52.704;13.814;2023-11-21T06:08:45;10.63;;;6.00;;
49241;SDS011;35079;52.704;13.814;2023-11-21T06:11:10;9.77;;;6.00;;
49241;SDS011;35079;52.704;13.814;2023-11-21T06:13:36;10.32;;;6.43;;
49241;SDS011;35079;52.704;13.814;2023-11-21T06:16:03;11.52;;;7.07;;
49241;SDS011;35079;52.704;13.814;2023-11-21T06:18:29;15.15;;;7.75;;
49241;SDS011;35079;52.704;13.814;2023-11-21T06:20:55;16.40;;;7.78;;
49241;SDS011;35079;52.704;13.814;2023-11-21T06:23:20;17.13;;;8.63;;
49241;SDS011;35079;52.704;13.814;2023-11-21T06:25:46;21.83;;;9.68;;
49241;SDS011;35079;52.704;13.814;2023-11-21T06:28:11;19.70;;;9.80;;
49241;SDS011;35079;52.704;13.814;2023-11-21T06:30:37;23.13;;;10.23;;
49241;SDS011;35079;52.704;13.814;2023-11-21T06:33:03;26.63;;;10.60;;
49241;SDS011;35079;52.704;13.814;2023-11-21T06:35:28;27.83;;;11.40;;
49241;SDS011;35079;52.704;13.814;2023-11-21T06:37:57;24.75;;;10.73;;
49241;SDS011;35079;52.704;13.814;2023-11-21T06:40:23;28.10;;;10.85;;
49241;SDS011;35079;52.704;13.814;2023-11-21T06:42:49;26.60;;;11.38;;
49241;SDS011;35079;52.704;13.814;2023-11-21T06:45:16;24.33;;;11.07;;
49241;SDS011;35079;52.704;13.814;2023-11-21T06:47:41;28.10;;;11.98;;
49241;SDS011;35079;52.704;13.814;2023-11-21T06:50:07;29.88;;;12.13;;
49241;SDS011;35079;52.704;13.814;2023-11-21T06:52:33;31.73;;;11.70;;
49241;SDS011;35079;52.704;13.814;2023-11-21T06:54:59;31.42;;;12.85;;
49241;SDS011;35079;52.704;13.814;2023-11-21T06:57:25;39.60;;;13.05;;
49241;SDS011;35079;52.704;13.814;2023-11-21T06:59:50;32.97;;;12.70;;
49241;SDS011;35079;52.704;13.814;2023-11-21T07:02:16;30.60;;;12.68;;
49241;SDS011;35079;52.704;13.814;2023-11-21T07:04:47;30.88;;;12.93;;
49241;SDS011;35079;52.704;13.814;2023-11-21T07:07:12;36.35;;;12.65;;
49241;SDS011;35079;52.704;13.814;2023-11-21T07:09:38;31.83;;;13.48;;
49241;SDS011;35079;52.704;13.814;2023-11-21T07:12:04;25.42;;;11.85;;
49241;SDS011;35079;52.704;13.814;2023-11-21T07:14:32;31.02;;;13.63;;
49241;SDS011;35079;52.704;13.814;2023-11-21T07:16:58;28.33;;;11.70;;
49241;SDS011;35079;52.704;13.814;2023-11-21T07:19:24;32.90;;;12.85;;
49241;SDS011;35079;52.704;13.814;2023-11-21T07:21:50;29.67;;;11.15;;
49241;SDS011;35079;52.704;13.814;2023-11-21T07:24:16;26.85;;;12.35;;
49241;SDS011;35079;52.704;13.814;2023-11-21T07:26:41;29.67;;;10.27;;
49241;SDS011;35079;52.704;13.814;2023-11-21T07:29:08;32.58;;;9.95;;
49241;SDS011;35079;52.704;13.814;2023-11-21T07:31:33;17.15;;;8.82;;
49241;SDS011;35079;52.704;13.814;2023-11-21T07:33:59;15.77;;;6.45;;
49241;SDS011;35079;52.704;13.814;2023-11-21T07:36:25;11.43;;;5.80;;
49241;SDS011;35079;52.704;13.814;2023-11-21T07:38:52;11.70;;;5.97;;
49241;SDS011;35079;52.704;13.814;2023-11-21T07:41:18;8.30;;;4.43;;
49241;SDS011;35079;52.704;13.814;2023-11-21T07:43:43;7.05;;;4.40;;
49241;SDS011;35079;52.704;13.814;2023-11-21T07:46:10;8.73;;;4.32;;
49241;SDS011;35079;52.704;13.814;2023-11-21T07:48:40;9.70;;;5.05;;
49241;SDS011;35079;52.704;13.814;2023-11-21T07:51:07;6.63;;;3.60;;
49241;SDS011;35079;52.704;13.814;2023-11-21T07:53:33;4.72;;;3.80;;
49241;SDS011;35079;52.704;13.814;2023-11-21T07:56:03;8.35;;;3.90;;
49241;SDS011;35079;52.704;13.814;2023-11-21T07:58:35;6.88;;;3.25;;
49241;SDS011;35079;52.704;13.814;2023-11-21T08:01:02;4.82;;;3.00;;
49241;SDS011;35079;52.704;13.814;2023-11-21T08:03:28;5.80;;;3.58;;
49241;SDS011;35079;52.704;13.814;2023-11-21T08:05:57;5.32;;;3.25;;
49241;SDS011;35079;52.704;13.814;2023-11-21T08:08:23;7.13;;;3.75;;
49241;SDS011;35079;52.704;13.814;2023-11-21T08:10:49;4.53;;;3.40;;
49241;SDS011;35079;52.704;13.814;2023-11-21T08:13:24;6.10;;;3.60;;
49241;SDS011;35079;52.704;13.814;2023-11-21T08:15:53;4.03;;;3.63;;
49241;SDS011;35079;52.704;13.814;2023-11-21T08:18:19;4.88;;;3.47;;
49241;SDS011;35079;52.704;13.814;2023-11-21T08:20:45;4.10;;;3.47;;
49241;SDS011;35079;52.704;13.814;2023-11-21T08:23:16;6.65;;;4.15;;
49241;SDS011;35079;52.704;13.814;2023-11-21T08:25:43;3.67;;;3.38;;
49241;SDS011;35079;52.704;13.814;2023-11-21T08:28:08;5.07;;;3.50;;
49241;SDS011;35079;52.704;13.814;2023-11-21T08:30:35;4.88;;;3.42;;
49241;SDS011;35079;52.704;13.814;2023-11-21T08:33:00;6.15;;;3.38;;
49241;SDS011;35079;52.704;13.814;2023-11-21T08:35:28;5.07;;;3.45;;
49241;SDS011;35079;52.704;13.814;2023-11-21T08:37:53;7.53;;;4.05;;
49241;SDS011;35079;52.704;13.814;2023-11-21T08:40:20;3.85;;;3.35;;
49241;SDS011;35079;52.704;13.814;2023-11-21T08:42:46;3.67;;;3.03;;
49241;SDS011;35079;52.704;13.814;2023-11-21T08:45:12;3.70;;;3.13;;
49241;SDS011;35079;52.704;13.814;2023-11-21T08:47:42;5.05;;;2.78;;
49241;SDS011;35079;52.704;13.814;2023-11-21T08:50:09;5.57;;;2.95;;
49241;SDS011;35079;52.704;13.814;2023-11-21T08:52:37;3.55;;;3.22;;
49241;SDS011;35079;52.704;13.814;2023-11-21T08:55:06;4.28;;;2.80;;
49241;SDS011;35079;52.704;13.814;2023-11-21T08:57:37;3.60;;;3.28;;
49241;SDS011;35079;52.704;13.814;2023-11-21T09:00:06;2.40;;;2.20;;
49241;SDS011;35079;52.704;13.814;2023-11-21T09:02:50;3.83;;;2.53;;
49241;SDS011;35079;52.704;13.814;2023-11-21T09:05:16;2.83;;;2.47;;
49241;SDS011;35079;52.704;13.814;2023-11-21T09:07:42;3.00;;;2.50;;
49241;SDS011;35079;52.704;13.814;2023-11-21T09:10:08;2.88;;;2.45;;
49241;SDS011;35079;52.704;13.814;2023-11-21T09:12:34;6.57;;;2.50;;
49241;SDS011;35079;52.704;13.814;2023-11-21T09:15:02;2.90;;;2.63;;
49241;SDS011;35079;52.704;13.814;2023-11-21T09:17:30;2.90;;;2.50;;
49241;SDS011;35079;52.704;13.814;2023-11-21T09:19:56;2.50;;;2.30;;
49241;SDS011;35079;52.704;13.814;2023-11-21T09:22:22;3.92;;;2.80;;
49241;SDS011;35079;52.704;13.814;2023-11-21T09:24:49;3.35;;;2.63;;
49241;SDS011;35079;52.704;13.814;2023-11-21T09:27:15;3.13;;;2.83;;
49241;SDS011;35079;52.704;13.814;2023-11-21T09:29:42;4.10;;;2.50;;
49241;SDS011;35079;52.704;13.814;2023-11-21T09:32:08;4.50;;;2.85;;
49241;SDS011;35079;52.704;13.814;2023-11-21T09:34:37;2.42;;;2.22;;
49241;SDS011;35079;52.704;13.814;2023-11-21T09:37:06;2.63;;;2.42;;
49241;SDS011;35079;52.704;13.814;2023-11-21T09:39:33;4.20;;;2.53;;
49241;SDS011;35079;52.704;13.814;2023-11-21T09:47:26;2.70;;;2.20;;
49241;SDS011;35079;52.704;13.814;2023-11-21T09:49:53;2.53;;;2.03;;
49241;SDS011;35079;52.704;13.814;2023-11-21T09:52:25;4.53;;;2.38;;
49241;SDS011;35079;52.704;13.814;2023-11-21T09:54:52;2.85;;;2.28;;
49241;SDS011;35079;52.704;13.814;2023-11-21T09:57:22;4.18;;;2.50;;
49241;SDS011;35079;52.704;13.814;2023-11-21T09:59:52;4.68;;;2.83;;
49241;SDS011;35079;52.704;13.814;2023-11-21T10:02:27;4.78;;;3.13;;
49241;SDS011;35079;52.704;13.814;2023-11-21T10:04:55;2.95;;;2.45;;
49241;SDS011;35079;52.704;13.814;2023-11-21T10:07:21;4.32;;;2.40;;
49241;SDS011;35079;52.704;13.814;2023-11-21T10:09:48;4.65;;;2.67;;
49241;SDS011;35079;52.704;13.814;2023-11-21T10:12:15;2.90;;;2.60;;
49241;SDS011;35079;52.704;13.814;2023-11-21T10:14:41;5.70;;;2.83;;
49241;SDS011;35079;52.704;13.814;2023-11-21T10:17:10;3.03;;;2.72;;
49241;SDS011;35079;52.704;13.814;2023-11-21T10:19:37;2.47;;;2.28;;
49241;SDS011;35079;52.704;13.814;2023-11-21T10:22:04;2.55;;;2.33;;
49241;SDS011;35079;52.704;13.814;2023-11-21T10:24:32;5.22;;;2.50;;
49241;SDS011;35079;52.704;13.814;2023-11-21T10:26:58;4.20;;;2.50;;
49241;SDS011;35079;52.704;13.814;2023-11-21T10:29:24;3.67;;;2.65;;
49241;SDS011;35079;52.704;13.814;2023-11-21T10:31:51;2.80;;;2.50;;
49241;SDS011;35079;52.704;13.814;2023-11-21T10:34:20;4.25;;;2.70;;
49241;SDS011;35079;52.704;13.814;2023-11-21T10:36:46;2.60;;;2.40;;
49241;SDS011;35079;52.704;13.814;2023-11-21T10:39:14;2.90;;;2.40;;
49241;SDS011;35079;52.704;13.814;2023-11-21T10:41:43;2.60;;;2.33;;
49241;SDS011;35079;52.704;13.814;2023-11-21T10:44:16;2.75;;;2.45;;
49241;SDS011;35079;52.704;13.814;2023-11-21T10:46:46;2.92;;;2.60;;
49241;SDS011;35079;52.704;13.814;2023-11-21T10:49:16;3.63;;;2.72;;
49241;SDS011;35079;52.704;13.814;2023-11-21T10:51:43;2.90;;;2.30;;
49241;SDS011;35079;52.704;13.814;2023-11-21T10:54:09;4.25;;;2.53;;
49241;SDS011;35079;52.704;13.814;2023-11-21T10:56:37;3.30;;;2.78;;
49241;SDS011;35079;52.704;13.814;2023-11-21T10:59:06;3.05;;;2.25;;
49241;SDS011;35079;52.704;13.814;2023-11-21T11:01:35;6.13;;;2.50;;
49241;SDS011;35079;52.704;13.814;2023-11-21T11:04:02;3.00;;;2.67;;
49241;SDS011;35079;52.704;13.814;2023-11-21T11:06:31;3.25;;;2.83;;
49241;SDS011;35079;52.704;13.814;2023-11-21T11:08:57;3.58;;;2.80;;
49241;SDS011;35079;52.704;13.814;2023-11-21T11:11:25;5.47;;;2.63;;
49241;SDS011;35079;52.704;13.814;2023-11-21T11:13:50;4.57;;;3.20;;
49241;SDS011;35079;52.704;13.814;2023-11-21T11:16:18;3.83;;;2.90;;
49241;SDS011;35079;52.704;13.814;2023-11-21T11:18:44;4.28;;;3.00;;
49241;SDS011;35079;52.704;13.814;2023-11-21T11:21:31;5.13;;;3.17;;
49241;SDS011;35079;52.704;13.814;2023-11-21T11:26:37;3.90;;;3.50;;
49241;SDS011;35079;52.704;13.814;2023-11-21T11:29:35;3.40;;;2.80;;
49241;SDS011;35079;52.704;13.814;2023-11-21T11:32:13;5.20;;;3.40;;
49241;SDS011;35079;52.704;13.814;2023-11-21T11:34:44;4.93;;;3.67;;
49241;SDS011;35079;52.704;13.814;2023-11-21T11:37:15;4.57;;;3.55;;
49241;SDS011;35079;52.704;13.814;2023-11-21T11:39:41;3.78;;;3.30;;
49241;SDS011;35079;52.704;13.814;2023-11-21T11:42:14;5.75;;;3.58;;
49241;SDS011;35079;52.704;13.814;2023-11-21T11:54:59;4.35;;;3.95;;
49241;SDS011;35079;52.704;13.814;2023-11-21T11:57:25;4.97;;;3.97;;
49241;SDS011;35079;52.704;13.814;2023-11-21T12:00:06;4.55;;;3.80;;
49241;SDS011;35079;52.704;13.814;2023-11-21T12:02:37;4.05;;;3.65;;
49241;SDS011;35079;52.704;13.814;2023-11-21T12:05:11;4.38;;;3.97;;
49241;SDS011;35079;52.704;13.814;2023-11-21T12:07:45;5.80;;;3.85;;
49241;SDS011;35079;52.704;13.814;2023-11-21T12:10:13;5.18;;;4.10;;
49241;SDS011;35079;52.704;13.814;2023-11-21T12:12:46;5.13;;;3.92;;
49241;SDS011;35079;52.704;13.814;2023-11-21T12:15:14;6.38;;;3.88;;
49241;SDS011;35079;52.704;13.814;2023-11-21T12:17:43;6.20;;;4.35;;
49241;SDS011;35079;52.704;13.814;2023-11-21T12:20:10;5.30;;;4.65;;
49241;SDS011;35079;52.704;13.814;2023-11-21T12:22:43;7.32;;;5.43;;
49241;SDS011;35079;52.704;13.814;2023-11-21T12:25:08;8.13;;;5.00;;
49241;SDS011;35079;52.704;13.814;2023-11-21T12:27:34;6.63;;;4.47;;
49241;SDS011;35079;52.704;13.814;2023-11-21T12:30:00;5.47;;;4.40;;
49241;SDS011;35079;52.704;13.814;2023-11-21T12:32:26;5.25;;;4.05;;
49241;SDS011;35079;52.704;13.814;2023-11-21T12:34:51;5.72;;;4.03;;
49241;SDS011;35079;52.704;13.814;2023-11-21T12:37:17;6.85;;;4.15;;
49241;SDS011;35079;52.704;13.814;2023-11-21T12:39:43;6.65;;;4.40;;
49241;SDS011;35079;52.704;13.814;2023-11-21T12:42:09;7.00;;;4.60;;
49241;SDS011;35079;52.704;13.814;2023-11-21T12:44:35;5.32;;;4.32;;
49241;SDS011;35079;52.704;13.814;2023-11-21T12:47:02;7.32;;;4.70;;
49241;SDS011;35079;52.704;13.814;2023-11-21T12:49:28;7.80;;;4.72;;
49241;SDS011;35079;52.704;13.814;2023-11-21T12:51:54;6.10;;;4.82;;
49241;SDS011;35079;52.704;13.814;2023-11-21T12:54:19;6.60;;;5.60;;
49241;SDS011;35079;52.704;13.814;2023-11-21T12:56:46;7.07;;;5.68;;
49241;SDS011;35079;52.704;13.814;2023-11-21T12:59:14;8.18;;;6.03;;
49241;SDS011;35079;52.704;13.814;2023-11-21T13:01:44;10.05;;;7.20;;
49241;SDS011;35079;52.704;13.814;2023-11-21T13:04:11;9.10;;;7.10;;
49241;SDS011;35079;52.704;13.814;2023-11-21T13:06:37;8.80;;;7.50;;
49241;SDS011;35079;52.704;13.814;2023-11-21T13:09:06;8.80;;;6.55;;
49241;SDS011;35079;52.704;13.814;2023-11-21T13:11:37;14.73;;;8.10;;
49241;SDS011;35079;52.704;13.814;2023-11-21T13:14:05;10.75;;;7.80;;
49241;SDS011;35079;52.704;13.814;2023-11-21T13:16:31;12.18;;;8.02;;
49241;SDS011;35079;52.704;13.814;2023-11-21T13:18:59;13.38;;;8.38;;
49241;SDS011;35079;52.704;13.814;2023-11-21T13:21:25;15.32;;;9.73;;
49241;SDS011;35079;52.704;13.814;2023-11-21T13:23:51;13.02;;;9.57;;
49241;SDS011;35079;52.704;13.814;2023-11-21T13:26:18;16.13;;;10.40;;
49241;SDS011;35079;52.704;13.814;2023-11-21T13:28:45;16.63;;;10.80;;
49241;SDS011;35079;52.704;13.814;2023-11-21T13:31:12;14.80;;;10.32;;
49241;SDS011;35079;52.704;13.814;2023-11-21T13:33:46;17.48;;;11.85;;
49241;SDS011;35079;52.704;13.814;2023-11-21T13:36:20;16.83;;;11.88;;
49241;SDS011;35079;52.704;13.814;2023-11-21T13:38:50;19.55;;;12.63;;
49241;SDS011;35079;52.704;13.814;2023-11-21T13:41:17;18.92;;;12.57;;
49241;SDS011;35079;52.704;13.814;2023-11-21T13:43:43;20.40;;;13.15;;
49241;SDS011;35079;52.704;13.814;2023-11-21T13:46:18;22.08;;;14.43;;
49241;SDS011;35079;52.704;13.814;2023-11-21T13:48:47;23.52;;;14.98;;
49241;SDS011;35079;52.704;13.814;2023-11-21T13:51:20;22.70;;;14.27;;
49241;SDS011;35079;52.704;13.814;2023-11-21T13:53:55;20.77;;;14.13;;
49241;SDS011;35079;52.704;13.814;2023-11-21T13:56:21;22.95;;;14.38;;
49241;SDS011;35079;52.704;13.814;2023-11-21T13:58:50;23.17;;;14.30;;
49241;SDS011;35079;52.704;13.814;2023-11-21T14:01:20;23.00;;;14.70;;
49241;SDS011;35079;52.704;13.814;2023-11-21T14:03:56;23.88;;;14.60;;
49241;SDS011;35079;52.704;13.814;2023-11-21T14:06:27;23.88;;;14.93;;
49241;SDS011;35079;52.704;13.814;2023-11-21T14:09:00;27.45;;;15.25;;
49241;SDS011;35079;52.704;13.814;2023-11-21T14:11:30;26.50;;;15.85;;
49241;SDS011;35079;52.704;13.814;2023-11-21T14:13:56;25.48;;;15.45;;
49241;SDS011;35079;52.704;13.814;2023-11-21T14:16:24;24.45;;;15.25;;
49241;SDS011;35079;52.704;13.814;2023-11-21T14:18:49;21.10;;;13.57;;
49241;SDS011;35079;52.704;13.814;2023-11-21T14:21:22;21.35;;;13.55;;
49241;SDS011;35079;52.704;13.814;2023-11-21T14:23:48;26.45;;;13.80;;
49241;SDS011;35079;52.704;13.814;2023-11-21T14:26:14;25.10;;;14.07;;
49241;SDS011;35079;52.704;13.814;2023-11-21T14:28:40;23.88;;;13.73;;
49241;SDS011;35079;52.704;13.814;2023-11-21T14:31:06;22.23;;;12.85;;
49241;SDS011;35079;52.704;13.814;2023-11-21T14:33:33;22.10;;;13.73;;
49241;SDS011;35079;52.704;13.814;2023-11-21T14:35:58;22.70;;;13.10;;
49241;SDS011;35079;52.704;13.814;2023-11-21T14:38:24;25.08;;;14.20;;
49241;SDS011;35079;52.704;13.814;2023-11-21T14:40:50;21.90;;;12.35;;
49241;SDS011;35079;52.704;13.814;2023-11-21T14:43:15;19.45;;;12.98;;